Time;durP1;ratioP1;P1;durP2;ratioP2;P2;SDS_P1;SDS_P2;PMS_P1;PMS_P2;Temp;Humidity;BMP_temperature;BMP_pressure;BME280_temperature;BME280_humidity;BME280_pressure;Samples;Min_cycle;Max_cycle;Signal;HPM_P1;HPM_P2
2023/03/21 00:00:16;;;;;;;19.95;13.43;;;;;;;8.28;100.00;101501.19;6294571;22;19999;-86
2023/03/21 00:02:42;;;;;;;17.02;12.85;;;;;;;8.33;100.00;101507.22;6293493;22;20007;-86
2023/03/21 00:05:07;;;;;;;20.23;12.65;;;;;;;8.34;100.00;101500.13;6294033;22;20003;-86
2023/03/21 00:07:33;;;;;;;18.73;12.95;;;;;;;8.35;100.00;101496.56;6289700;22;20007;-87
2023/03/21 00:09:58;;;;;;;17.48;12.77;;;;;;;8.35;100.00;101492.13;6287695;22;20010;-87
2023/03/21 00:12:23;;;;;;;18.27;13.00;;;;;;;8.35;100.00;101491.25;6276373;22;20298;-87
2023/03/21 00:14:49;;;;;;;17.70;12.23;;;;;;;8.35;100.00;101492.13;6275990;22;20053;-88
2023/03/21 00:17:15;;;;;;;15.35;11.95;;;;;;;8.34;100.00;101485.09;6273761;22;20003;-87
2023/03/21 00:19:40;;;;;;;15.23;13.07;;;;;;;8.36;100.00;101483.28;6273293;22;20368;-86
2023/03/21 00:22:06;;;;;;;19.27;12.80;;;;;;;8.35;100.00;101480.66;6273665;22;20085;-86
2023/03/21 00:24:32;;;;;;;16.77;12.40;;;;;;;8.36;100.00;101477.06;6272351;22;20550;-87
2023/03/21 00:26:57;;;;;;;17.25;11.95;;;;;;;8.31;100.00;101471.03;6274389;22;20008;-88
2023/03/21 00:29:22;;;;;;;15.68;12.02;;;;;;;8.29;100.00;101468.44;6273411;22;20049;-88
2023/03/21 00:31:48;;;;;;;15.35;11.48;;;;;;;8.34;100.00;101474.47;6274694;22;20051;-86
2023/03/21 00:34:13;;;;;;;14.98;10.77;;;;;;;8.27;100.00;101459.66;6296544;22;20015;-87
2023/03/21 00:36:39;;;;;;;15.70;10.90;;;;;;;8.32;100.00;101471.00;6298387;22;19996;-88
2023/03/21 00:39:05;;;;;;;19.33;11.25;;;;;;;8.29;100.00;101455.19;6299336;22;19991;-87
2023/03/21 00:41:31;;;;;;;17.60;10.93;;;;;;;8.27;100.00;101449.06;6284639;22;20157;-86
2023/03/21 00:43:56;;;;;;;18.48;11.23;;;;;;;8.23;100.00;101445.66;6280793;22;20114;-87
2023/03/21 00:46:21;;;;;;;16.50;10.95;;;;;;;8.26;100.00;101447.31;6279669;22;20057;-87
2023/03/21 00:48:47;;;;;;;18.30;11.10;;;;;;;8.29;100.00;101444.59;6277990;22;20008;-87
2023/03/21 00:51:25;;;;;;;15.35;11.10;;;;;;;8.29;100.00;101446.38;6274700;22;20035;-87
2023/03/21 00:53:56;;;;;;;15.32;11.32;;;;;;;8.29;100.00;101455.19;6273728;22;20003;-87
2023/03/21 00:56:21;;;;;;;12.88;10.73;;;;;;;8.28;100.00;101439.31;6272535;22;20023;-87
2023/03/21 00:58:47;;;;;;;17.23;11.13;;;;;;;8.27;100.00;101438.44;6271332;22;20007;-87
2023/03/21 01:01:12;;;;;;;20.70;10.93;;;;;;;8.27;100.00;101432.28;6290217;22;19999;-85
2023/03/21 01:03:41;;;;;;;17.90;11.35;;;;;;;8.27;100.00;101430.50;6290031;22;20007;-87
2023/03/21 01:06:12;;;;;;;15.48;10.75;;;;;;;8.26;100.00;101427.91;6290900;22;20055;-86
2023/03/21 01:08:40;;;;;;;13.38;10.45;;;;;;;8.23;100.00;101427.09;6290483;22;20018;-85
2023/03/21 01:11:13;;;;;;;15.32;11.45;;;;;;;8.21;100.00;101414.78;6292240;22;20004;-85
2023/03/21 01:13:38;;;;;;;14.35;10.35;;;;;;;8.20;100.00;101418.34;6289972;22;20026;-85
2023/03/21 01:16:05;;;;;;;18.73;11.00;;;;;;;8.20;100.00;101419.22;6276258;22;20019;-87
2023/03/21 01:18:31;;;;;;;16.85;11.15;;;;;;;8.20;100.00;101418.34;6273313;22;20023;-87
2023/03/21 01:20:58;;;;;;;16.27;11.98;;;;;;;8.19;100.00;101413.94;6272215;22;20066;-87
2023/03/21 01:23:24;;;;;;;18.20;12.57;;;;;;;8.16;100.00;101408.78;6273464;22;20003;-87
2023/03/21 01:25:51;;;;;;;19.98;12.65;;;;;;;8.18;100.00;101413.09;6273384;22;20015;-87
2023/03/21 01:28:17;;;;;;;18.80;11.95;;;;;;;8.15;100.00;101401.72;6274141;22;20000;-87
2023/03/21 01:30:47;;;;;;;16.55;11.50;;;;;;;8.16;100.00;101399.03;6273396;22;20082;-87
2023/03/21 01:33:13;;;;;;;23.70;12.52;;;;;;;8.18;100.00;101399.81;6273673;22;20073;-87
2023/03/21 01:35:38;;;;;;;19.55;12.65;;;;;;;8.19;100.00;101398.94;6273729;22;20413;-88
2023/03/21 01:38:04;;;;;;;16.33;11.70;;;;;;;8.18;100.00;101393.66;6273661;22;20050;-87
2023/03/21 01:40:29;;;;;;;14.27;11.52;;;;;;;8.16;100.00;101387.56;6268095;22;20008;-87
2023/03/21 01:42:55;;;;;;;16.83;12.05;;;;;;;8.18;100.00;101383.06;6271006;22;19996;-87
2023/03/21 01:45:57;;;;;;;14.82;11.20;;;;;;;8.21;100.00;101393.56;6271541;22;20018;-86
2023/03/21 01:48:23;;;;;;;18.17;11.68;;;;;;;8.19;100.00;101382.13;6270492;22;20046;-87
2023/03/21 01:50:50;;;;;;;15.82;11.55;;;;;;;8.14;100.00;101379.63;6270754;22;20008;-86
2023/03/21 01:53:20;;;;;;;16.83;11.85;;;;;;;8.19;100.00;101392.72;6271309;22;20003;-86
2023/03/21 01:55:46;;;;;;;17.55;11.70;;;;;;;8.18;100.00;101386.56;6270099;22;20429;-86
2023/03/21 01:58:17;;;;;;;16.90;12.25;;;;;;;8.19;100.00;101387.44;6271277;22;20003;-86
2023/03/21 02:00:45;;;;;;;19.17;12.15;;;;;;;8.17;100.00;101381.31;6268786;22;20075;-87
2023/03/21 02:03:15;;;;;;;16.70;11.70;;;;;;;8.11;100.00;101371.78;6268922;22;20448;-87
2023/03/21 02:06:03;;;;;;;14.35;10.75;;;;;;;8.19;100.00;101374.19;6270302;22;20072;-87
2023/03/21 02:08:31;;;;;;;15.52;10.95;;;;;;;8.18;100.00;101372.44;6270360;22;20007;-87
2023/03/21 02:10:57;;;;;;;17.77;11.45;;;;;;;8.14;100.00;101362.84;6269189;22;20368;-87
2023/03/21 02:13:22;;;;;;;16.23;10.50;;;;;;;8.15;100.00;101362.81;6270138;22;19996;-86
2023/03/21 02:16:18;;;;;;;16.55;11.30;;;;;;;8.17;100.00;101360.13;6269359;22;20007;-87
2023/03/21 02:18:55;;;;;;;15.35;10.60;;;;;;;8.13;100.00;101351.38;6269663;22;20081;-87
2023/03/21 02:21:29;;;;;;;15.40;10.68;;;;;;;8.13;100.00;101354.03;6269675;22;20015;-88
2023/03/21 02:24:40;;;;;;;16.27;10.65;;;;;;;8.14;100.00;101349.59;6272902;22;20012;-87
2023/03/21 02:27:17;;;;;;;14.88;10.82;;;;;;;8.09;100.00;101343.59;6270714;22;20083;-87
2023/03/21 02:30:08;;;;;;;12.95;10.00;;;;;;;8.12;100.00;101343.50;6273180;22;20086;-86
2023/03/21 02:32:55;;;;;;;13.85;9.70;;;;;;;8.13;100.00;101342.56;6297789;22;19991;-87
2023/03/21 02:35:32;;;;;;;14.88;9.57;;;;;;;8.09;100.00;101335.63;6298570;22;19998;-87
2023/03/21 02:38:17;;;;;;;15.98;10.73;;;;;;;8.10;100.00;101337.34;6297732;22;20138;-87
2023/03/21 02:40:55;;;;;;;16.70;10.10;;;;;;;8.06;100.00;101333.94;6289264;22;20000;-87
2023/03/21 02:43:34;;;;;;;12.85;9.68;;;;;;;8.09;100.00;101330.34;6288393;22;20008;-85
2023/03/21 02:46:13;;;;;;;14.00;9.82;;;;;;;8.08;100.00;101326.81;6285422;22;20007;-86
2023/03/21 02:48:56;;;;;;;15.00;10.18;;;;;;;8.09;100.00;101325.88;6274700;22;20378;-86
2023/03/21 02:51:25;;;;;;;12.50;9.60;;;;;;;8.07;100.00;101326.84;6275686;22;20433;-86
2023/03/21 02:53:57;;;;;;;14.70;9.90;;;;;;;8.05;100.00;101323.41;6275159;22;20015;-86
2023/03/21 02:56:24;;;;;;;17.38;10.50;;;;;;;8.08;100.00;101320.66;6273757;22;20074;-86
2023/03/21 02:58:51;;;;;;;18.52;10.50;;;;;;;8.05;100.00;101320.75;6272333;22;20079;-85
2023/03/21 03:01:16;;;;;;;15.25;10.38;;;;;;;7.97;100.00;101308.59;6295283;22;20003;-87
2023/03/21 03:03:42;;;;;;;16.63;10.45;;;;;;;8.02;100.00;101312.88;6271060;22;20022;-86
2023/03/21 03:06:16;;;;;;;18.17;10.23;;;;;;;8.03;100.00;101317.28;6272189;22;20472;-85
2023/03/21 03:08:47;;;;;;;16.27;10.15;;;;;;;8.02;100.00;101318.19;6296207;22;19999;-87
2023/03/21 03:11:28;;;;;;;14.82;10.50;;;;;;;8.03;100.00;101319.94;6298510;22;19988;-85
2023/03/21 03:14:01;;;;;;;15.43;10.50;;;;;;;8.00;100.00;101315.59;6298473;22;19987;-86
2023/03/21 03:16:38;;;;;;;17.00;10.88;;;;;;;7.97;100.00;101308.59;6280809;22;20004;-86
2023/03/21 03:19:09;;;;;;;18.55;10.30;;;;;;;7.93;100.00;101314.91;6277227;22;20019;-85
2023/03/21 03:21:46;;;;;;;17.58;11.15;;;;;;;7.88;100.00;101310.69;6276842;22;20004;-86
2023/03/21 03:24:26;;;;;;;19.50;12.00;;;;;;;7.80;100.00;101307.41;6274138;22;20022;-86
2023/03/21 03:27:02;;;;;;;18.40;12.43;;;;;;;7.67;100.00;101301.63;6274660;22;20458;-87
2023/03/21 03:29:31;;;;;;;18.23;12.23;;;;;;;7.62;100.00;101304.44;6274963;22;20000;-87
2023/03/21 03:32:10;;;;;;;18.88;11.55;;;;;;;7.54;100.00;101295.00;6272862;22;20420;-86
2023/03/21 03:34:40;;;;;;;21.95;13.65;;;;;;;7.50;100.00;101294.22;6270625;22;20056;-86
2023/03/21 03:37:09;;;;;;;22.50;13.23;;;;;;;7.52;100.00;101296.81;6270255;22;20409;-86
2023/03/21 03:39:44;;;;;;;22.05;13.40;;;;;;;7.48;100.00;101285.44;6269809;22;20000;-87
2023/03/21 03:42:18;;;;;;;19.80;13.27;;;;;;;7.50;100.00;101302.16;6270814;22;20004;-86
2023/03/21 03:44:44;;;;;;;19.38;12.43;;;;;;;7.45;100.00;101294.38;6269723;22;20404;-87
2023/03/21 03:47:17;;;;;;;23.13;13.90;;;;;;;7.44;100.00;101295.28;6269884;22;19995;-87
2023/03/21 03:50:09;;;;;;;21.95;14.77;;;;;;;7.45;100.00;101286.41;6269382;22;20003;-87
2023/03/21 03:52:45;;;;;;;22.92;13.02;;;;;;;7.46;100.00;101290.78;6269168;22;20480;-88
2023/03/21 03:55:15;;;;;;;18.77;12.27;;;;;;;7.46;100.00;101285.50;6269160;22;20008;-87
2023/03/21 03:57:40;;;;;;;18.75;12.45;;;;;;;7.46;100.00;101288.16;6269101;22;20045;-87
2023/03/21 04:00:14;;;;;;;20.33;12.65;;;;;;;7.47;100.00;101289.00;6269080;22;20086;-87
2023/03/21 04:02:39;;;;;;;20.00;12.93;;;;;;;7.46;100.00;101290.78;6270496;22;20449;-87
2023/03/21 04:05:05;;;;;;;20.38;13.88;;;;;;;7.45;100.00;101286.41;6294497;22;20015;-87
2023/03/21 04:07:30;;;;;;;22.90;13.73;;;;;;;7.44;100.00;101290.00;6268903;22;20007;-86
2023/03/21 04:09:56;;;;;;;22.88;14.45;;;;;;;7.44;100.00;101279.41;6268471;22;20013;-86
2023/03/21 04:12:22;;;;;;;23.33;14.05;;;;;;;7.45;100.00;101282.91;6268597;22;20004;-86
2023/03/21 04:14:48;;;;;;;21.67;14.98;;;;;;;7.44;100.00;101281.16;6269527;22;20010;-86
2023/03/21 04:17:14;;;;;;;22.77;14.90;;;;;;;7.44;100.00;101281.16;6268334;22;20004;-86
2023/03/21 04:19:39;;;;;;;24.02;14.45;;;;;;;7.40;100.00;101272.47;6266596;22;20040;-86
2023/03/21 04:22:05;;;;;;;22.23;14.50;;;;;;;7.44;100.00;101274.09;6268122;22;20007;-87
2023/03/21 04:24:32;;;;;;;24.70;15.02;;;;;;;7.40;100.00;101263.66;6267536;22;20018;-87
2023/03/21 04:26:58;;;;;;;22.88;14.57;;;;;;;7.44;100.00;101265.25;6269050;22;20000;-86
2023/03/21 04:29:23;;;;;;;21.63;14.27;;;;;;;7.42;100.00;101267.97;6268677;22;20418;-87
2023/03/21 04:31:49;;;;;;;21.65;13.75;;;;;;;7.40;100.00;101267.16;6293047;22;20012;-86
2023/03/21 04:34:14;;;;;;;20.80;14.15;;;;;;;7.42;100.00;101259.16;6268206;22;20004;-87
2023/03/21 04:36:46;;;;;;;20.60;14.40;;;;;;;7.42;100.00;101262.66;6267114;22;20007;-86
2023/03/21 04:39:12;;;;;;;27.25;15.18;;;;;;;7.42;100.00;101257.38;6268797;22;20008;-87
2023/03/21 04:41:42;;;;;;;22.20;14.43;;;;;;;7.42;100.00;101251.22;6269668;22;20601;-87
2023/03/21 04:44:09;;;;;;;25.40;15.00;;;;;;;7.43;100.00;101248.50;6269610;22;20547;-87
2023/03/21 04:46:34;;;;;;;21.55;14.68;;;;;;;7.46;100.00;101248.41;6270347;22;20129;-86
2023/03/21 04:49:00;;;;;;;18.33;13.27;;;;;;;7.47;100.00;101243.97;6272665;22;20110;-86
2023/03/21 04:51:25;;;;;;;19.75;13.05;;;;;;;7.49;100.00;101237.72;6273731;22;20031;-87
2023/03/21 04:53:51;;;;;;;19.92;12.95;;;;;;;7.51;100.00;101239.47;6267507;22;20376;-87
2023/03/21 04:56:17;;;;;;;17.40;13.02;;;;;;;7.52;100.00;101236.75;6270671;22;20027;-86
2023/03/21 04:58:42;;;;;;;22.10;14.20;;;;;;;7.50;100.00;101235.94;6270122;22;20004;-87
2023/03/21 05:01:08;;;;;;;18.88;13.10;;;;;;;7.56;100.00;101232.22;6269706;22;20015;-87
2023/03/21 05:03:38;;;;;;;16.63;12.63;;;;;;;7.56;100.00;101229.56;6273075;22;20043;-85
2023/03/21 05:06:08;;;;;;;20.35;12.30;;;;;;;7.54;100.00;101231.41;6296653;22;19991;-87
2023/03/21 05:08:34;;;;;;;19.35;12.48;;;;;;;7.59;100.00;101235.66;6296440;22;19987;-86
2023/03/21 05:11:00;;;;;;;18.67;12.85;;;;;;;7.59;100.00;101226.84;6296102;22;20008;-86
2023/03/21 05:13:26;;;;;;;20.83;12.98;;;;;;;7.59;100.00;101224.19;6292407;22;20059;-86
2023/03/21 05:15:51;;;;;;;19.15;12.63;;;;;;;7.63;100.00;101228.47;6290380;22;20014;-87
2023/03/21 05:18:23;;;;;;;18.83;12.65;;;;;;;7.62;100.00;101226.75;6287235;22;20149;-87
2023/03/21 05:20:52;;;;;;;22.65;12.52;;;;;;;7.66;100.00;101231.03;6280596;22;20032;-87
2023/03/21 05:23:18;;;;;;;16.73;12.15;;;;;;;7.67;100.00;101232.75;6274800;22;20000;-88
2023/03/21 05:25:44;;;;;;;20.83;12.38;;;;;;;7.68;100.00;101230.03;6275238;22;20003;-88
2023/03/21 05:28:09;;;;;;;15.60;11.40;;;;;;;7.69;100.00;101230.91;6275140;22;20667;-88
2023/03/21 05:30:34;;;;;;;21.77;11.60;;;;;;;7.66;100.00;101229.25;6282551;22;20007;-83
2023/03/21 05:33:00;;;;;;;17.95;11.55;;;;;;;7.72;100.00;101238.75;6294830;22;20022;-89
2023/03/21 05:35:25;;;;;;;18.88;11.40;;;;;;;7.72;100.00;101231.69;6292805;22;20363;-83
2023/03/21 05:37:52;;;;;;;15.65;11.07;;;;;;;7.74;100.00;101229.84;6291246;22;19995;-84
2023/03/21 05:40:18;;;;;;;20.70;11.20;;;;;;;7.74;100.00;101229.00;6294532;22;20106;-85
2023/03/21 05:42:44;;;;;;;18.95;10.63;;;;;;;7.70;100.00;101222.94;6283972;22;19998;-84
2023/03/21 05:45:10;;;;;;;17.15;10.43;;;;;;;7.74;100.00;101223.69;6290862;22;20007;-86
2023/03/21 05:47:35;;;;;;;19.55;10.75;;;;;;;7.76;100.00;101226.28;6298514;22;20055;-94
2023/03/21 05:50:00;;;;;;;17.13;10.30;;;;;;;7.71;100.00;101219.34;6292503;22;20008;-84
2023/03/21 05:52:27;;;;;;;16.95;11.20;;;;;;;7.78;100.00;101222.69;6318146;22;20011;-93
2023/03/21 05:54:52;;;;;;;20.17;11.45;;;;;;;7.79;100.00;101221.75;6301083;22;20213;-93
2023/03/21 05:57:18;;;;;;;15.60;10.32;;;;;;;7.81;100.00;101214.59;6294766;22;20011;-87
2023/03/21 05:59:44;;;;;;;17.73;11.52;;;;;;;7.84;100.00;101221.59;6301248;22;20012;-93
2023/03/21 06:02:10;;;;;;;14.60;11.13;;;;;;;7.83;100.00;101211.91;6304690;22;20050;-94
2023/03/21 06:04:35;;;;;;;17.77;10.10;;;;;;;7.89;100.00;101224.94;6303018;22;19992;-94
2023/03/21 06:07:01;;;;;;;19.70;10.57;;;;;;;7.83;100.00;101218.09;6303269;22;19995;-94
2023/03/21 06:09:26;;;;;;;19.55;10.48;;;;;;;7.88;100.00;101224.09;6295049;22;20011;-95
2023/03/21 06:11:54;;;;;;;15.27;10.30;;;;;;;7.88;100.00;101224.09;6294271;22;20010;-92
2023/03/21 06:14:20;;;;;;;17.40;10.55;;;;;;;7.86;100.00;101214.44;6284981;22;20392;-96
2023/03/21 06:16:45;;;;;;;16.10;10.23;;;;;;;7.93;100.00;101227.44;6282273;22;20004;-96
2023/03/21 06:19:11;;;;;;;15.95;10.43;;;;;;;7.86;100.00;101210.03;6279809;22;20486;-95
2023/03/21 06:21:47;;;;;;;14.05;9.63;;;;;;;7.96;100.00;101224.69;6281425;22;20010;-94
2023/03/21 06:24:13;;;;;;;15.02;9.18;;;;;;;7.95;100.00;101211.50;6280748;22;20015;-96
2023/03/21 06:26:38;;;;;;;14.95;9.48;;;;;;;7.97;100.00;101213.16;6282183;22;20003;-93
2023/03/21 06:29:04;;;;;;;17.30;9.95;;;;;;;7.99;100.00;101210.50;6283417;22;20003;-95
2023/03/21 06:31:33;;;;;;;13.55;8.30;;;;;;;8.07;100.00;101220.81;6279097;22;20033;-91
2023/03/21 06:33:58;;;;;;;14.70;8.30;;;;;;;8.12;100.00;101218.88;6283017;22;19983;-93
2023/03/21 06:36:24;;;;;;;12.15;8.05;;;;;;;8.17;100.00;101230.19;6276787;22;20460;-92
2023/03/21 06:38:49;;;;;;;18.40;8.35;;;;;;;8.18;100.00;101230.13;6276239;22;20110;-93
2023/03/21 06:41:15;;;;;;;16.60;7.65;;;;;;;8.21;100.00;101229.16;6280986;22;20325;-90
2023/03/21 06:43:43;;;;;;;13.13;7.28;;;;;;;8.22;100.00;101233.53;6288197;22;19999;-96
2023/03/21 06:56:29;;;;;;;11.77;6.70;;;;;;;8.18;100.00;101230.13;6283815;22;20287;-91
2023/03/21 06:58:55;;;;;;;15.88;7.03;;;;;;;8.20;100.00;101240.69;6261606;22;20031;-93
2023/03/21 07:01:20;;;;;;;13.63;7.20;;;;;;;8.19;100.00;101238.94;6286955;22;20034;-92
2023/03/21 07:03:46;;;;;;;11.52;7.70;;;;;;;8.06;100.00;101217.28;6285368;22;20034;-91
2023/03/21 07:06:12;;;;;;;10.95;7.28;;;;;;;8.03;100.00;101208.59;6283766;22;20011;-93
2023/03/21 07:08:39;;;;;;;13.80;7.72;;;;;;;7.99;100.00;101219.31;6282773;22;20018;-94
2023/03/21 07:11:05;;;;;;;15.55;8.40;;;;;;;8.13;100.00;101241.81;6283305;22;20099;-94
2023/03/21 07:13:31;;;;;;;15.48;8.77;;;;;;;8.17;100.00;101254.91;6253993;22;20046;-93
2023/03/21 07:15:57;;;;;;;13.77;8.45;;;;;;;8.17;100.00;101249.59;6280312;22;20003;-94
2023/03/21 07:18:22;;;;;;;16.17;9.05;;;;;;;8.17;100.00;101248.75;6280004;22;20051;-96
2023/03/21 07:20:52;;;;;;;14.73;9.10;;;;;;;8.19;100.00;101258.41;6255615;22;20468;-93
2023/03/21 07:23:20;;;;;;;16.40;8.45;;;;;;;8.18;100.00;101256.63;6281956;22;20012;-85
2023/03/21 07:25:49;;;;;;;14.23;8.60;;;;;;;8.17;100.00;101254.91;6277999;22;20705;-91
2023/03/21 07:28:16;;;;;;;16.30;8.20;;;;;;;8.15;100.00;101261.19;6245775;22;20011;-89
2023/03/21 07:30:42;;;;;;;14.32;9.10;;;;;;;8.11;100.00;101257.78;6273465;22;20026;-89
2023/03/21 07:33:07;;;;;;;15.13;9.30;;;;;;;8.10;100.00;101271.06;6272634;22;20026;-87
2023/03/21 07:35:33;;;;;;;18.15;8.88;;;;;;;8.07;100.00;101265.88;6271606;22;20074;-85
2023/03/21 07:37:58;;;;;;;19.75;9.63;;;;;;;8.03;100.00;101266.91;6243924;22;20012;-86
2023/03/21 07:40:24;;;;;;;16.67;9.80;;;;;;;8.01;100.00;101268.75;6293699;22;19991;-86
2023/03/21 07:42:49;;;;;;;18.98;10.18;;;;;;;7.90;100.00;101243.47;6297590;22;20132;-89
2023/03/21 07:45:19;;;;;;;16.98;10.40;;;;;;;8.00;100.00;101265.22;6297305;22;20017;-84
2023/03/21 07:47:45;;;;;;;21.77;10.57;;;;;;;8.01;100.00;101268.75;6288742;22;20008;-86
2023/03/21 07:50:11;;;;;;;21.90;10.77;;;;;;;7.96;100.00;101253.84;6282087;22;20064;-86
2023/03/21 07:52:37;;;;;;;20.88;11.45;;;;;;;7.97;100.00;101255.59;6276337;22;20006;-86
2023/03/21 07:55:02;;;;;;;18.88;11.25;;;;;;;8.01;100.00;101258.13;6272897;22;20024;-86
2023/03/21 07:57:28;;;;;;;20.58;11.68;;;;;;;8.05;100.00;101247.38;6269452;22;20006;-85
2023/03/21 07:59:53;;;;;;;24.58;13.07;;;;;;;8.12;100.00;101251.56;6270589;22;20049;-86
2023/03/21 08:02:18;;;;;;;20.13;12.23;;;;;;;8.16;100.00;101231.13;6274092;22;20049;-85
2023/03/21 08:04:44;;;;;;;21.95;12.95;;;;;;;8.21;100.00;101232.69;6274005;22;20023;-86
2023/03/21 08:07:10;;;;;;;23.52;14.25;;;;;;;8.24;100.00;101231.72;6288021;22;19988;-87
2023/03/21 08:09:36;;;;;;;22.88;13.85;;;;;;;8.21;100.00;101223.84;6294803;22;20039;-86
2023/03/21 08:12:02;;;;;;;25.38;12.85;;;;;;;8.24;100.00;101221.97;6298792;22;20010;-85
2023/03/21 08:14:27;;;;;;;22.77;12.73;;;;;;;8.19;100.00;101205.38;6289764;22;20095;-86
2023/03/21 08:16:53;;;;;;;27.85;12.50;;;;;;;8.23;100.00;101211.41;6280790;22;20004;-86
2023/03/21 08:19:20;;;;;;;24.25;12.93;;;;;;;8.26;100.00;101211.28;6278111;22;20004;-86
2023/03/21 08:21:48;;;;;;;17.90;12.32;;;;;;;8.19;100.00;101207.13;6278010;22;20007;-86
2023/03/21 08:24:14;;;;;;;27.92;13.50;;;;;;;8.20;100.00;101200.91;6274297;22;20008;-84
2023/03/21 08:26:39;;;;;;;18.33;11.02;;;;;;;8.16;100.00;101201.94;6274184;22;20038;-86
2023/03/21 08:29:05;;;;;;;18.52;11.73;;;;;;;8.12;100.00;101203.84;6245703;22;20572;-87
2023/03/21 08:31:31;;;;;;;19.52;11.85;;;;;;;8.10;100.00;101202.16;6272831;22;20014;-86
2023/03/21 08:33:56;;;;;;;20.52;12.38;;;;;;;8.09;100.00;101203.06;6272244;22;20392;-84
2023/03/21 08:36:22;;;;;;;20.05;11.98;;;;;;;8.13;100.00;101194.09;6269191;22;20078;-85
2023/03/21 08:38:48;;;;;;;20.38;11.43;;;;;;;8.16;100.00;101188.69;6271997;22;20003;-84
2023/03/21 08:41:17;;;;;;;24.10;12.95;;;;;;;8.19;100.00;101188.56;6272775;22;20569;-86
2023/03/21 08:43:43;;;;;;;17.70;12.18;;;;;;;8.17;100.00;101183.31;6271021;22;20023;-84
2023/03/21 08:46:08;;;;;;;21.65;11.48;;;;;;;8.28;100.00;101190.00;6272271;22;20457;-87
2023/03/21 08:48:33;;;;;;;23.52;13.15;;;;;;;8.28;100.00;101185.59;6272947;22;20064;-86
2023/03/21 08:50:59;;;;;;;21.38;12.32;;;;;;;8.38;100.00;101189.69;6271058;22;20035;-87
2023/03/21 08:53:25;;;;;;;24.17;13.85;;;;;;;8.40;100.00;101190.50;6270166;22;20004;-84
2023/03/21 08:55:50;;;;;;;18.20;11.77;;;;;;;8.41;100.00;101184.28;6237770;23;20016;-85
2023/03/21 08:58:16;;;;;;;18.45;12.55;;;;;;;8.40;100.00;101177.25;6238566;22;20130;-86
2023/03/21 09:00:41;;;;;;;21.88;13.35;;;;;;;8.47;100.00;101170.75;6239085;22;20057;-85
2023/03/21 09:03:06;;;;;;;22.67;13.82;;;;;;;8.51;100.00;101175.97;6240219;22;20004;-85
2023/03/21 09:05:32;;;;;;;20.52;12.48;;;;;;;8.60;100.00;101181.78;6240070;22;20333;-86
2023/03/21 09:08:00;;;;;;;21.60;12.23;;;;;;;8.65;100.00;101181.59;6241900;22;20067;-85
2023/03/21 09:10:26;;;;;;;19.92;12.63;;;;;;;8.74;100.00;101186.59;6241666;23;20499;-85
2023/03/21 09:12:53;;;;;;;27.17;12.48;;;;;;;8.78;100.00;101182.00;6242813;23;20004;-86
2023/03/21 09:15:20;;;;;;;19.08;11.98;;;;;;;8.79;100.00;101174.00;6242471;22;20067;-85
2023/03/21 09:17:48;;;;;;;17.63;11.20;;;;;;;8.83;100.00;101175.63;6241187;22;20003;-85
2023/03/21 09:20:17;;;;;;;16.48;10.95;;;;;;;8.89;100.00;101186.00;6242371;22;20000;-86
2023/03/21 09:22:44;;;;;;;18.08;10.70;;;;;;;8.89;100.00;101175.38;6241285;22;20086;-86
2023/03/21 09:25:10;;;;;;;20.83;10.98;;;;;;;8.92;100.00;101167.31;6241030;22;20102;-85
2023/03/21 09:27:36;;;;;;;18.38;10.80;;;;;;;9.02;100.00;101167.78;6239596;22;20008;-86
2023/03/21 09:30:02;;;;;;;16.13;10.35;;;;;;;9.06;100.00;101160.59;6241979;22;20381;-86
2023/03/21 09:32:28;;;;;;;15.35;9.63;;;;;;;9.03;100.00;101150.97;6241807;22;20007;-85
2023/03/21 09:34:54;;;;;;;14.27;9.65;;;;;;;8.96;100.00;101133.53;6242645;22;20000;-86
2023/03/21 09:37:20;;;;;;;18.30;9.93;;;;;;;9.10;100.00;101160.41;6241922;22;20014;-84
2023/03/21 09:39:46;;;;;;;14.38;9.75;;;;;;;9.16;100.00;101167.28;6243014;22;20032;-87
2023/03/21 09:43:06;;;;;;;15.13;10.02;;;;;;;9.17;100.00;101158.38;6242084;22;20079;-86
2023/03/21 09:45:42;;;;;;;16.40;10.05;;;;;;;9.26;100.00;101159.78;6178626;23;20013;-87
2023/03/21 09:48:21;;;;;;;13.40;9.70;;;;;;;9.47;100.00;101162.44;6177344;23;20017;-86
2023/03/21 09:50:46;;;;;;;16.52;10.48;;;;;;;9.62;100.00;101150.31;6183131;23;20009;-87
2023/03/21 09:53:34;;;;;;;14.27;9.15;;;;;;;9.79;100.00;101149.59;6177603;23;20015;-85
2023/03/21 09:56:01;;;;;;;12.93;9.23;;;;;;;9.81;100.00;101146.88;6184175;23;20076;-88
2023/03/21 09:58:35;;;;;;;12.95;8.65;;;;;;;9.78;100.00;101133.69;6177753;23;20402;-88
2023/03/21 10:01:25;;;;;;;10.52;8.05;;;;;;;9.80;100.00;101132.72;6178912;23;20029;-89
2023/03/21 10:03:55;;;;;;;14.35;8.52;;;;;;;9.66;100.00;101135.09;6178461;23;20009;-87
2023/03/21 10:06:27;;;;;;;10.18;7.45;;;;;;;9.58;100.00;101137.22;6177600;23;20147;-88
2023/03/21 10:08:57;;;;;;;14.48;8.80;;;;;;;9.46;100.00;101128.81;6178410;23;20005;-87
2023/03/21 10:11:33;;;;;;;13.63;8.95;;;;;;;9.55;100.00;101124.06;6203036;23;20049;-87
2023/03/21 10:14:06;;;;;;;11.88;8.65;;;;;;;9.57;100.00;101128.41;6206426;23;20029;-87
2023/03/21 10:16:35;;;;;;;16.40;7.78;;;;;;;9.61;100.00;101131.75;6248561;22;20007;-86
2023/03/21 10:19:08;;;;;;;12.20;7.57;;;;;;;9.54;100.00;101104.59;6268769;22;20027;-88
2023/03/21 10:21:38;;;;;;;12.70;7.65;;;;;;;9.57;100.00;101115.09;6267858;22;20000;-87
2023/03/21 10:24:04;;;;;;;11.38;7.63;;;;;;;9.59;100.00;101125.66;6261752;22;19992;-84
2023/03/21 10:26:30;;;;;;;12.77;7.68;;;;;;;9.57;100.00;101114.22;6264441;22;19992;-86
2023/03/21 10:29:00;;;;;;;11.20;7.50;;;;;;;9.62;100.00;101115.75;6270125;22;19996;-86
2023/03/21 10:31:28;;;;;;;12.90;6.80;;;;;;;9.59;100.00;101113.22;6269422;22;19996;-86
2023/03/21 10:34:00;;;;;;;11.98;6.70;;;;;;;9.66;100.00;101117.38;6268041;22;20027;-86
2023/03/21 10:36:29;;;;;;;12.80;7.60;;;;;;;9.82;100.00;101111.38;6261823;22;20014;-86
2023/03/21 10:39:03;;;;;;;11.50;6.90;;;;;;;10.07;100.00;101092.53;6259077;22;20000;-86
2023/03/21 10:41:29;;;;;;;8.80;6.55;;;;;;;10.19;100.00;101089.31;6254353;22;20000;-85
2023/03/21 10:44:09;;;;;;;13.40;6.95;;;;;;;10.50;100.00;101103.94;6251855;22;20008;-83
2023/03/21 10:46:34;;;;;;;11.60;6.57;;;;;;;10.64;100.00;101093.50;6253343;22;20060;-86
2023/03/21 10:49:00;;;;;;;10.13;5.88;;;;;;;10.85;100.00;101103.13;6253652;22;20556;-84
2023/03/21 10:51:35;;;;;;;9.85;6.40;;;;;;;11.06;100.00;101095.03;6252236;22;20011;-83
2023/03/21 10:54:12;;;;;;;10.10;6.05;;;;;;;11.19;100.00;101112.16;6245546;22;19996;-86
2023/03/21 10:56:46;;;;;;;13.60;6.38;;;;;;;11.22;100.00;101106.69;6270552;22;20039;-85
2023/03/21 10:59:17;;;;;;;9.48;5.70;;;;;;;11.25;100.00;101106.53;6273181;22;20018;-85
2023/03/21 11:01:48;;;;;;;10.00;6.17;;;;;;;11.32;100.00;101102.59;6273054;22;20010;-85
2023/03/21 11:04:18;;;;;;;11.13;6.45;;;;;;;11.70;100.00;101108.69;6273156;22;20654;-87
2023/03/21 11:06:53;;;;;;;6.80;5.10;;;;;;;11.94;99.60;101093.22;6273020;22;20080;-85
2023/03/21 11:09:23;;;;;;;8.55;5.60;;;;;;;12.37;97.44;101098.97;6272861;22;20431;-86
2023/03/21 11:12:01;;;;;;;10.60;6.88;;;;;;;12.54;93.63;101090.03;6274573;22;19999;-85
2023/03/21 11:14:37;;;;;;;9.00;5.47;;;;;;;12.56;91.28;101097.94;6248325;22;20169;-86
2023/03/21 11:17:19;;;;;;;7.95;5.20;;;;;;;12.47;89.98;101101.97;6274730;22;20071;-86
2023/03/21 11:19:48;;;;;;;10.18;6.10;;;;;;;12.21;89.49;101096.25;6272363;22;20003;-84
2023/03/21 11:22:14;;;;;;;11.43;5.90;;;;;;;12.08;92.87;101094.31;6244223;22;20433;-86
2023/03/21 11:24:50;;;;;;;11.07;5.70;;;;;;;11.97;90.85;101078.88;6271828;22;20004;-86
2023/03/21 11:27:16;;;;;;;9.40;5.68;;;;;;;11.88;87.91;101090.91;6270993;22;20004;-87
2023/03/21 11:29:48;;;;;;;10.70;5.60;;;;;;;11.81;89.31;101099.25;6243794;22;20061;-86